Main page
METAR-TAF:

METAR-TAF

Airports :

Albacete Airport

Albacete, Spain

latitude: 38-57N, longitude: 001-51W, elevation: 702 m

Current weather observation

The report was made 1 hour and 1 minutes ago, at 14:00 UTC
Wind 11 kt from the West/Southwest, varying between Southwest and West
Temperature 16°C
Humidity 48%
Pressure 1009 hPa
Visibility 10 km or more
no clouds below 1500 m and no cumulonimbus

METAR: LEAB 241400Z 25011KT 220V280 CAVOK 16/05 Q1009 NOSIG

Time: 17:01 (15:01 UTC)

Forecast

The report was made 1 hour and 1 minutes ago, at 14:00 UTC
Forecast valid from 24 at 15 UTC to 24 at 24 UTC
Wind 12 kt from the West/Southwest
Visibility 10 km or more
Scattered clouds at a height of 4000 ft
Temporary
from 24 at 15 UTC to 24 at 19 UTC
Wind 22 kt from the West/Southwest with gusts up to 32 kt

TAF: LEAB 241400Z 2415/2424 24012KT 9999 SCT040 TEMPO 2415/2419 24022G32KT

Weather observations and forecasts of more than 4000 airports (METAR and TAF reports).

The available stations are represented by yellow and red dots on the map.

Hover mouse over dot to see the name of the station.

Then click to see weather observations and forecasts.

To change the map : click on the green buttons with a black cross to zoom in, on the green button with a dash to zoom out, or on the green arrows for adjacent maps.


METAR-TAF: